sensor_id;sensor_type;location;lat;lon;timestamp;P1;durP1;ratioP1;P2;durP2;ratioP2
40629;SDS011;26329;40.388;-3.710;2023-04-09T00:06:45;2.80;;;0.20;;
40629;SDS011;26329;40.388;-3.710;2023-04-09T00:16:46;4.65;;;0.40;;
40629;SDS011;26329;40.388;-3.710;2023-04-09T00:26:47;7.55;;;0.40;;
40629;SDS011;26329;40.388;-3.710;2023-04-09T00:36:49;1.58;;;0.30;;
40629;SDS011;26329;40.388;-3.710;2023-04-09T00:46:51;4.00;;;0.60;;
40629;SDS011;26329;40.388;-3.710;2023-04-09T00:56:52;3.85;;;0.47;;
40629;SDS011;26329;40.388;-3.710;2023-04-09T01:17:46;2.75;;;0.28;;
40629;SDS011;26329;40.388;-3.710;2023-04-09T01:28:17;2.73;;;0.40;;
40629;SDS011;26329;40.388;-3.710;2023-04-09T01:38:20;2.17;;;0.40;;
40629;SDS011;26329;40.388;-3.710;2023-04-09T01:48:23;2.10;;;0.27;;
40629;SDS011;26329;40.388;-3.710;2023-04-09T01:58:26;2.38;;;0.40;;
40629;SDS011;26329;40.388;-3.710;2023-04-09T02:08:27;0.40;;;0.10;;
40629;SDS011;26329;40.388;-3.710;2023-04-09T02:18:31;3.10;;;0.75;;
40629;SDS011;26329;40.388;-3.710;2023-04-09T02:28:33;1.90;;;0.45;;
40629;SDS011;26329;40.388;-3.710;2023-04-09T02:38:34;5.30;;;1.20;;
40629;SDS011;26329;40.388;-3.710;2023-04-09T02:48:35;4.03;;;0.60;;
40629;SDS011;26329;40.388;-3.710;2023-04-09T02:58:37;2.38;;;0.70;;
40629;SDS011;26329;40.388;-3.710;2023-04-09T03:08:38;5.93;;;0.50;;
40629;SDS011;26329;40.388;-3.710;2023-04-09T03:18:39;5.80;;;0.80;;
40629;SDS011;26329;40.388;-3.710;2023-04-09T03:28:40;6.20;;;1.58;;
40629;SDS011;26329;40.388;-3.710;2023-04-09T03:38:42;7.10;;;1.25;;
40629;SDS011;26329;40.388;-3.710;2023-04-09T03:48:43;4.25;;;1.00;;
40629;SDS011;26329;40.388;-3.710;2023-04-09T03:58:45;7.38;;;1.40;;
40629;SDS011;26329;40.388;-3.710;2023-04-09T04:08:48;8.13;;;1.60;;
40629;SDS011;26329;40.388;-3.710;2023-04-09T04:18:49;6.72;;;1.80;;
40629;SDS011;26329;40.388;-3.710;2023-04-09T04:28:50;3.97;;;1.83;;
40629;SDS011;26329;40.388;-3.710;2023-04-09T04:38:51;11.02;;;1.35;;
40629;SDS011;26329;40.388;-3.710;2023-04-09T04:48:53;3.42;;;0.73;;
40629;SDS011;26329;40.388;-3.710;2023-04-09T04:58:54;7.90;;;0.90;;
40629;SDS011;26329;40.388;-3.710;2023-04-09T05:08:56;6.03;;;1.52;;
40629;SDS011;26329;40.388;-3.710;2023-04-09T05:18:57;12.32;;;1.10;;
40629;SDS011;26329;40.388;-3.710;2023-04-09T05:28:59;2.08;;;0.77;;
40629;SDS011;26329;40.388;-3.710;2023-04-09T05:39:00;5.35;;;0.68;;
40629;SDS011;26329;40.388;-3.710;2023-04-09T05:49:02;2.92;;;0.50;;
40629;SDS011;26329;40.388;-3.710;2023-04-09T05:59:03;4.10;;;0.60;;
40629;SDS011;26329;40.388;-3.710;2023-04-09T06:09:04;2.58;;;0.77;;
40629;SDS011;26329;40.388;-3.710;2023-04-09T06:19:06;4.75;;;1.10;;
40629;SDS011;26329;40.388;-3.710;2023-04-09T06:29:07;7.38;;;1.27;;
40629;SDS011;26329;40.388;-3.710;2023-04-09T06:39:08;4.68;;;0.63;;
40629;SDS011;26329;40.388;-3.710;2023-04-09T06:49:10;2.00;;;0.70;;
40629;SDS011;26329;40.388;-3.710;2023-04-09T06:59:11;6.25;;;1.10;;
40629;SDS011;26329;40.388;-3.710;2023-04-09T07:09:13;5.72;;;1.25;;
40629;SDS011;26329;40.388;-3.710;2023-04-09T07:19:14;3.42;;;1.02;;
40629;SDS011;26329;40.388;-3.710;2023-04-09T07:29:16;2.92;;;1.10;;
40629;SDS011;26329;40.388;-3.710;2023-04-09T07:39:17;2.20;;;1.35;;
40629;SDS011;26329;40.388;-3.710;2023-04-09T07:49:18;9.52;;;2.13;;
40629;SDS011;26329;40.388;-3.710;2023-04-09T07:59:21;5.40;;;2.27;;
40629;SDS011;26329;40.388;-3.710;2023-04-09T08:09:23;7.78;;;3.17;;
40629;SDS011;26329;40.388;-3.710;2023-04-09T08:19:25;23.95;;;3.28;;
40629;SDS011;26329;40.388;-3.710;2023-04-09T08:29:26;5.82;;;1.92;;
40629;SDS011;26329;40.388;-3.710;2023-04-09T08:39:28;5.85;;;1.40;;
40629;SDS011;26329;40.388;-3.710;2023-04-09T08:49:29;5.20;;;1.35;;
40629;SDS011;26329;40.388;-3.710;2023-04-09T08:59:30;7.53;;;1.60;;
40629;SDS011;26329;40.388;-3.710;2023-04-09T09:20:19;3.72;;;0.77;;
40629;SDS011;26329;40.388;-3.710;2023-04-09T09:30:22;4.70;;;0.90;;
40629;SDS011;26329;40.388;-3.710;2023-04-09T09:40:25;5.40;;;0.95;;
40629;SDS011;26329;40.388;-3.710;2023-04-09T10:00:31;6.35;;;0.95;;
40629;SDS011;26329;40.388;-3.710;2023-04-09T10:10:33;2.47;;;1.02;;
40629;SDS011;26329;40.388;-3.710;2023-04-09T10:20:39;5.07;;;1.35;;
40629;SDS011;26329;40.388;-3.710;2023-04-09T10:30:45;5.28;;;2.13;;
40629;SDS011;26329;40.388;-3.710;2023-04-09T10:40:47;6.53;;;2.00;;
40629;SDS011;26329;40.388;-3.710;2023-04-09T11:00:54;7.78;;;1.38;;
40629;SDS011;26329;40.388;-3.710;2023-04-09T11:10:56;2.53;;;0.90;;
40629;SDS011;26329;40.388;-3.710;2023-04-09T11:20:59;4.43;;;0.68;;
40629;SDS011;26329;40.388;-3.710;2023-04-09T11:31:03;4.85;;;0.90;;
40629;SDS011;26329;40.388;-3.710;2023-04-09T11:41:06;11.10;;;3.42;;
40629;SDS011;26329;40.388;-3.710;2023-04-09T11:51:12;3.47;;;1.65;;
40629;SDS011;26329;40.388;-3.710;2023-04-09T12:01:14;2.93;;;0.60;;
40629;SDS011;26329;40.388;-3.710;2023-04-09T12:21:17;7.15;;;1.23;;
40629;SDS011;26329;40.388;-3.710;2023-04-09T12:31:18;3.37;;;0.67;;
40629;SDS011;26329;40.388;-3.710;2023-04-09T12:41:19;7.93;;;1.03;;
40629;SDS011;26329;40.388;-3.710;2023-04-09T12:51:21;7.78;;;1.27;;
40629;SDS011;26329;40.388;-3.710;2023-04-09T13:11:25;19.75;;;2.47;;
40629;SDS011;26329;40.388;-3.710;2023-04-09T13:21:26;15.77;;;1.80;;
40629;SDS011;26329;40.388;-3.710;2023-04-09T13:31:27;24.60;;;2.90;;
40629;SDS011;26329;40.388;-3.710;2023-04-09T13:41:27;12.57;;;1.13;;
40629;SDS011;26329;40.388;-3.710;2023-04-09T13:51:29;27.20;;;3.15;;
40629;SDS011;26329;40.388;-3.710;2023-04-09T14:01:30;32.20;;;4.17;;
40629;SDS011;26329;40.388;-3.710;2023-04-09T14:11:31;29.17;;;3.63;;
40629;SDS011;26329;40.388;-3.710;2023-04-09T14:21:32;41.87;;;6.90;;
40629;SDS011;26329;40.388;-3.710;2023-04-09T14:31:34;36.58;;;4.95;;
40629;SDS011;26329;40.388;-3.710;2023-04-09T14:41:35;47.33;;;5.90;;
40629;SDS011;26329;40.388;-3.710;2023-04-09T14:51:37;36.88;;;4.68;;
40629;SDS011;26329;40.388;-3.710;2023-04-09T15:11:39;37.20;;;4.95;;
40629;SDS011;26329;40.388;-3.710;2023-04-09T15:21:41;49.13;;;5.97;;
40629;SDS011;26329;40.388;-3.710;2023-04-09T15:31:42;45.70;;;6.60;;
40629;SDS011;26329;40.388;-3.710;2023-04-09T15:51:45;49.70;;;5.88;;
40629;SDS011;26329;40.388;-3.710;2023-04-09T16:01:47;34.13;;;4.70;;
40629;SDS011;26329;40.388;-3.710;2023-04-09T16:21:51;27.70;;;3.90;;
40629;SDS011;26329;40.388;-3.710;2023-04-09T16:31:52;35.90;;;4.20;;
40629;SDS011;26329;40.388;-3.710;2023-04-09T16:41:54;37.33;;;5.60;;
40629;SDS011;26329;40.388;-3.710;2023-04-09T16:51:57;37.58;;;5.03;;
40629;SDS011;26329;40.388;-3.710;2023-04-09T17:01:59;26.90;;;5.15;;
40629;SDS011;26329;40.388;-3.710;2023-04-09T17:12:01;43.13;;;6.15;;
40629;SDS011;26329;40.388;-3.710;2023-04-09T17:32:04;34.47;;;6.30;;
40629;SDS011;26329;40.388;-3.710;2023-04-09T17:42:05;46.40;;;5.55;;
40629;SDS011;26329;40.388;-3.710;2023-04-09T17:52:07;44.72;;;7.10;;
40629;SDS011;26329;40.388;-3.710;2023-04-09T18:02:09;47.97;;;6.47;;
40629;SDS011;26329;40.388;-3.710;2023-04-09T18:12:11;47.47;;;6.78;;
40629;SDS011;26329;40.388;-3.710;2023-04-09T18:32:14;49.33;;;5.75;;
40629;SDS011;26329;40.388;-3.710;2023-04-09T18:42:16;46.38;;;5.72;;
40629;SDS011;26329;40.388;-3.710;2023-04-09T18:52:18;38.70;;;5.80;;
40629;SDS011;26329;40.388;-3.710;2023-04-09T19:02:19;39.97;;;5.20;;
40629;SDS011;26329;40.388;-3.710;2023-04-09T19:12:20;28.85;;;5.40;;
40629;SDS011;26329;40.388;-3.710;2023-04-09T19:22:22;40.77;;;5.77;;
40629;SDS011;26329;40.388;-3.710;2023-04-09T19:32:23;33.97;;;5.53;;
40629;SDS011;26329;40.388;-3.710;2023-04-09T19:42:25;44.10;;;8.30;;
40629;SDS011;26329;40.388;-3.710;2023-04-09T19:52:28;40.47;;;6.22;;
40629;SDS011;26329;40.388;-3.710;2023-04-09T20:02:29;33.93;;;5.53;;
40629;SDS011;26329;40.388;-3.710;2023-04-09T20:12:32;39.45;;;6.40;;
40629;SDS011;26329;40.388;-3.710;2023-04-09T20:22:34;44.55;;;7.45;;
40629;SDS011;26329;40.388;-3.710;2023-04-09T20:32:35;46.93;;;8.17;;
40629;SDS011;26329;40.388;-3.710;2023-04-09T20:42:38;49.57;;;8.20;;
40629;SDS011;26329;40.388;-3.710;2023-04-09T20:52:40;50.08;;;8.27;;
40629;SDS011;26329;40.388;-3.710;2023-04-09T21:12:44;43.33;;;7.45;;
40629;SDS011;26329;40.388;-3.710;2023-04-09T21:22:45;55.90;;;8.27;;
40629;SDS011;26329;40.388;-3.710;2023-04-09T21:32:47;58.15;;;8.77;;
40629;SDS011;26329;40.388;-3.710;2023-04-09T21:42:49;53.20;;;7.95;;
40629;SDS011;26329;40.388;-3.710;2023-04-09T21:52:51;54.63;;;7.77;;
40629;SDS011;26329;40.388;-3.710;2023-04-09T22:02:52;51.33;;;9.27;;
40629;SDS011;26329;40.388;-3.710;2023-04-09T22:13:00;52.50;;;8.93;;
40629;SDS011;26329;40.388;-3.710;2023-04-09T22:23:01;48.05;;;8.48;;
40629;SDS011;26329;40.388;-3.710;2023-04-09T22:33:03;58.95;;;9.23;;
40629;SDS011;26329;40.388;-3.710;2023-04-09T22:43:04;57.78;;;7.70;;
40629;SDS011;26329;40.388;-3.710;2023-04-09T22:53:06;57.38;;;8.98;;
40629;SDS011;26329;40.388;-3.710;2023-04-09T23:03:07;52.88;;;8.05;;
40629;SDS011;26329;40.388;-3.710;2023-04-09T23:13:09;43.70;;;7.40;;
40629;SDS011;26329;40.388;-3.710;2023-04-09T23:23:13;46.53;;;7.25;;
40629;SDS011;26329;40.388;-3.710;2023-04-09T23:33:15;55.30;;;9.05;;
40629;SDS011;26329;40.388;-3.710;2023-04-09T23:43:16;55.85;;;9.57;;
40629;SDS011;26329;40.388;-3.710;2023-04-09T23:53:17;51.85;;;8.75;;
